Time;durP1;ratioP1;P1;durP2;ratioP2;P2;SDS_P1;SDS_P2;PMS_P1;PMS_P2;Temp;Humidity;BMP_temperature;BMP_pressure;BME280_temperature;BME280_humidity;BME280_pressure;Samples;Min_cycle;Max_cycle;Signal;HPM_P1;HPM_P2
2023/07/04 00:00:59;;;;;;;8.37;5.80;;;20.30;64.20;;;;;;4994546;28;20472;-69
2023/07/04 00:03:26;;;;;;;11.07;6.87;;;20.30;64.40;;;;;;5002249;28;20778;-69
2023/07/04 00:05:55;;;;;;;13.93;7.80;;;20.20;64.60;;;;;;5014003;28;20430;-69
2023/07/04 00:08:24;;;;;;;10.90;6.20;;;20.20;65.10;;;;;;4998751;28;20502;-70
2023/07/04 00:10:53;;;;;;;9.83;6.53;;;20.10;64.90;;;;;;4994753;28;20440;-70
2023/07/04 00:13:20;;;;;;;8.23;5.80;;;20.20;64.70;;;;;;4994716;28;20439;-69
2023/07/04 00:15:49;;;;;;;11.30;6.90;;;20.20;64.90;;;;;;4994145;28;20475;-69
2023/07/04 00:18:20;;;;;;;11.50;6.97;;;20.20;65.00;;;;;;4994347;28;20471;-69
2023/07/04 00:20:47;;;;;;;11.27;6.30;;;20.20;64.90;;;;;;4994527;28;20421;-70
2023/07/04 00:23:17;;;;;;;13.93;6.97;;;20.20;64.80;;;;;;4993971;28;20461;-69
2023/07/04 00:25:44;;;;;;;11.33;6.50;;;20.20;65.20;;;;;;4994524;28;20457;-70
2023/07/04 00:28:12;;;;;;;9.60;6.43;;;20.20;64.90;;;;;;5006022;28;20542;-69
2023/07/04 00:30:39;;;;;;;10.57;5.40;;;20.20;64.90;;;;;;5013706;28;20506;-69
2023/07/04 00:33:06;;;;;;;9.63;5.80;;;20.20;64.90;;;;;;5013372;28;20500;-69
2023/07/04 00:35:33;;;;;;;11.00;6.40;;;20.30;65.30;;;;;;5013517;28;20529;-70
2023/07/04 00:38:02;;;;;;;8.97;6.13;;;20.30;65.40;;;;;;5013161;28;20478;-70
2023/07/04 00:40:29;;;;;;;12.17;5.97;;;20.30;65.60;;;;;;5013866;28;20434;-69
2023/07/04 00:43:02;;;;;;;10.43;5.30;;;20.30;65.60;;;;;;5013875;28;20561;-69
2023/07/04 00:45:33;;;;;;;11.00;5.50;;;20.40;64.90;;;;;;5013828;28;20470;-70
2023/07/04 00:48:03;;;;;;;7.93;5.40;;;20.40;65.40;;;;;;5012869;28;20912;-69
2023/07/04 00:50:34;;;;;;;7.10;4.90;;;20.40;64.60;;;;;;5013446;28;20426;-69
2023/07/04 00:53:05;;;;;;;12.73;6.00;;;20.40;64.80;;;;;;5013577;28;20897;-69
2023/07/04 00:55:37;;;;;;;12.57;5.30;;;20.40;65.20;;;;;;5013370;28;20461;-69
2023/07/04 00:58:04;;;;;;;8.63;5.13;;;20.40;65.60;;;;;;5013674;28;20427;-70
2023/07/04 01:00:33;;;;;;;11.23;6.30;;;20.40;65.60;;;;;;5013581;28;20442;-69
2023/07/04 01:03:04;;;;;;;12.33;7.00;;;20.40;65.20;;;;;;5013217;28;20462;-70
2023/07/04 01:05:37;;;;;;;11.40;5.57;;;20.40;65.30;;;;;;5013539;28;20816;-69
2023/07/04 01:08:08;;;;;;;13.33;7.13;;;20.40;65.30;;;;;;5001937;28;20936;-69
2023/07/04 01:10:43;;;;;;;10.80;5.87;;;20.40;65.30;;;;;;4993623;28;20499;-69
2023/07/04 01:13:33;;;;;;;8.43;5.60;;;20.50;65.20;;;;;;4994017;28;20419;-69
2023/07/04 01:16:02;;;;;;;11.20;6.93;;;20.50;64.80;;;;;;4993500;28;20460;-69
2023/07/04 01:18:30;;;;;;;10.77;6.30;;;20.50;65.20;;;;;;5006467;28;20562;-69
2023/07/04 01:20:59;;;;;;;8.40;5.47;;;20.50;65.30;;;;;;5013284;28;20431;-69
2023/07/04 01:23:34;;;;;;;10.20;5.93;;;20.50;64.90;;;;;;5013376;28;20445;-69
2023/07/04 01:26:21;;;;;;;8.03;5.27;;;20.40;65.20;;;;;;5013684;28;20435;-69
2023/07/04 01:28:51;;;;;;;9.70;6.60;;;20.40;65.60;;;;;;4996519;28;20988;-69
2023/07/04 01:31:20;;;;;;;10.70;5.83;;;20.30;66.00;;;;;;4993420;28;20946;-69
2023/07/04 01:33:47;;;;;;;12.60;6.90;;;20.20;66.40;;;;;;4993722;28;20455;-69
2023/07/04 01:36:15;;;;;;;11.33;6.83;;;20.20;66.90;;;;;;5004129;28;20501;-70
2023/07/04 01:38:43;;;;;;;10.37;6.63;;;20.10;67.10;;;;;;5017310;28;20541;-69
2023/07/04 01:41:10;;;;;;;11.17;6.27;;;20.10;67.40;;;;;;5017096;28;20481;-70
2023/07/04 01:43:39;;;;;;;11.50;5.77;;;20.00;67.70;;;;;;5016533;28;20466;-71
2023/07/04 01:46:06;;;;;;;12.27;5.40;;;20.00;67.20;;;;;;5004636;28;20453;-69
2023/07/04 01:48:33;;;;;;;10.97;6.40;;;20.00;67.60;;;;;;5017005;28;20547;-69
2023/07/04 01:51:00;;;;;;;11.27;6.00;;;20.10;67.90;;;;;;5016632;28;20464;-69
2023/07/04 01:53:28;;;;;;;11.00;6.00;;;20.10;68.30;;;;;;5016937;28;20435;-69
2023/07/04 01:55:54;;;;;;;8.60;5.37;;;20.10;68.20;;;;;;5011562;28;20532;-69
2023/07/04 01:58:21;;;;;;;9.53;6.20;;;20.20;68.80;;;;;;4996936;28;20783;-69
2023/07/04 02:00:50;;;;;;;11.47;5.97;;;20.20;69.20;;;;;;4997250;28;20435;-69
2023/07/04 02:03:17;;;;;;;9.50;5.90;;;20.20;69.00;;;;;;4997159;28;20498;-69
2023/07/04 02:05:43;;;;;;;9.57;6.53;;;20.20;67.50;;;;;;4997399;28;20481;-70
2023/07/04 02:08:11;;;;;;;11.03;5.77;;;20.20;67.70;;;;;;4997066;28;20432;-69
2023/07/04 02:10:38;;;;;;;7.80;6.20;;;20.20;67.60;;;;;;4996900;28;20826;-69
2023/07/04 02:13:05;;;;;;;8.20;5.60;;;20.20;67.70;;;;;;4996996;28;20440;-69
2023/07/04 02:15:32;;;;;;;9.80;5.33;;;20.20;68.50;;;;;;4996906;28;20548;-69
2023/07/04 02:18:00;;;;;;;11.43;5.70;;;20.20;69.60;;;;;;5016123;28;20481;-69
2023/07/04 02:20:27;;;;;;;9.07;5.63;;;20.20;68.90;;;;;;5016030;28;20959;-69
2023/07/04 02:22:54;;;;;;;10.83;5.60;;;20.20;69.50;;;;;;5016315;28;20443;-69
2023/07/04 02:25:21;;;;;;;10.33;5.63;;;20.20;69.90;;;;;;5016364;28;20838;-69
2023/07/04 02:27:48;;;;;;;7.13;4.80;;;20.20;69.70;;;;;;4996536;28;20438;-69
2023/07/04 02:30:15;;;;;;;11.93;5.43;;;20.20;69.00;;;;;;4996316;28;20441;-69
2023/07/04 02:32:42;;;;;;;8.13;4.80;;;20.20;68.60;;;;;;5011982;28;20477;-70
2023/07/04 02:35:13;;;;;;;8.23;5.57;;;20.20;68.40;;;;;;5015806;28;20438;-70
2023/07/04 02:37:40;;;;;;;10.40;5.83;;;20.20;69.60;;;;;;5016118;28;20415;-69
2023/07/04 02:40:08;;;;;;;10.63;5.50;;;20.10;70.90;;;;;;5015707;28;20939;-69
2023/07/04 02:42:35;;;;;;;11.43;5.30;;;20.10;71.30;;;;;;5000468;28;20496;-69
2023/07/04 02:45:03;;;;;;;10.57;5.53;;;20.10;70.50;;;;;;4996007;28;20820;-69
2023/07/04 02:47:31;;;;;;;7.13;4.93;;;20.10;70.50;;;;;;4994979;28;20438;-69
2023/07/04 02:49:58;;;;;;;6.60;4.03;;;20.10;70.70;;;;;;4995937;28;20475;-69
2023/07/04 02:52:27;;;;;;;12.70;4.90;;;20.00;70.90;;;;;;5008075;28;20926;-69
2023/07/04 02:54:54;;;;;;;8.63;4.17;;;20.00;70.10;;;;;;5015470;28;20431;-69
2023/07/04 02:57:22;;;;;;;5.50;3.50;;;20.00;69.40;;;;;;5015338;28;20941;-69
2023/07/04 02:59:49;;;;;;;6.23;4.27;;;20.00;69.30;;;;;;5015276;28;20439;-69
2023/07/04 03:02:17;;;;;;;8.90;4.07;;;20.00;69.60;;;;;;5003567;28;20487;-69
2023/07/04 03:04:45;;;;;;;6.80;4.30;;;20.00;70.10;;;;;;4995642;28;20545;-69
2023/07/04 03:07:12;;;;;;;8.97;4.00;;;20.00;70.60;;;;;;4995598;28;20930;-69
2023/07/04 03:09:41;;;;;;;8.13;3.60;;;20.00;70.90;;;;;;4995857;28;20467;-69
2023/07/04 03:12:09;;;;;;;5.17;3.00;;;20.00;71.00;;;;;;5005186;28;20492;-69
2023/07/04 03:14:36;;;;;;;6.87;3.93;;;20.00;71.00;;;;;;5015351;28;20783;-69
2023/07/04 03:17:03;;;;;;;5.73;3.47;;;20.00;70.90;;;;;;5015189;28;20507;-69
2023/07/04 03:19:30;;;;;;;5.87;3.30;;;20.00;70.90;;;;;;5015421;28;20489;-69
2023/07/04 03:21:57;;;;;;;6.63;3.87;;;20.00;70.90;;;;;;5005814;28;20483;-69
2023/07/04 03:24:24;;;;;;;4.43;2.70;;;20.00;71.40;;;;;;4995371;28;20486;-69
2023/07/04 03:26:52;;;;;;;4.60;3.17;;;19.90;71.70;;;;;;4995230;28;20537;-69
2023/07/04 03:29:19;;;;;;;5.00;3.00;;;20.00;72.50;;;;;;4995574;28;20437;-69
2023/07/04 03:31:46;;;;;;;5.47;3.27;;;20.00;72.80;;;;;;5001480;28;20940;-69
2023/07/04 03:34:13;;;;;;;7.17;3.03;;;20.00;73.00;;;;;;5014781;28;20465;-69
2023/07/04 03:36:40;;;;;;;9.80;3.23;;;20.00;73.30;;;;;;5014884;28;20467;-69
2023/07/04 03:39:07;;;;;;;7.70;3.90;;;20.00;74.60;;;;;;5014617;28;20482;-69
2023/07/04 03:41:34;;;;;;;6.20;3.40;;;20.00;75.80;;;;;;5009274;28;20467;-69
2023/07/04 03:44:02;;;;;;;7.97;4.63;;;20.00;76.90;;;;;;4994733;28;20859;-69
2023/07/04 03:46:29;;;;;;;5.77;2.67;;;19.90;78.60;;;;;;4995123;28;20497;-69
2023/07/04 03:48:56;;;;;;;4.93;2.80;;;19.90;80.00;;;;;;4995346;28;20754;-69
2023/07/04 03:51:24;;;;;;;7.87;4.17;;;19.90;80.30;;;;;;4997199;28;20948;-69
2023/07/04 03:53:51;;;;;;;4.63;3.50;;;19.80;80.70;;;;;;5014747;28;20446;-69
2023/07/04 03:56:18;;;;;;;5.10;3.53;;;19.80;81.20;;;;;;5014492;28;20980;-69
2023/07/04 03:58:45;;;;;;;6.50;3.10;;;19.70;81.80;;;;;;5014172;28;20470;-69
2023/07/04 04:01:13;;;;;;;8.00;3.70;;;19.70;82.30;;;;;;5006848;28;20432;-69
2023/07/04 04:03:40;;;;;;;5.37;3.00;;;19.70;82.80;;;;;;4995057;28;20431;-69
2023/07/04 04:06:08;;;;;;;7.80;2.93;;;19.60;83.80;;;;;;5010056;28;20486;-70
2023/07/04 04:08:35;;;;;;;4.27;2.80;;;19.60;85.30;;;;;;5014317;28;20481;-69
2023/07/04 04:11:02;;;;;;;3.37;2.67;;;19.60;85.60;;;;;;5013583;28;20996;-69
2023/07/04 04:13:29;;;;;;;11.17;3.07;;;19.60;86.20;;;;;;5014482;28;20490;-69
2023/07/04 04:15:56;;;;;;;6.37;2.73;;;19.60;86.20;;;;;;5014258;28;20473;-69
2023/07/04 04:18:25;;;;;;;4.93;2.80;;;19.60;86.30;;;;;;5014018;28;20469;-69
2023/07/04 04:20:52;;;;;;;5.60;2.87;;;19.60;86.90;;;;;;5014232;28;20491;-69
2023/07/04 04:23:18;;;;;;;5.57;3.20;;;19.60;87.50;;;;;;5011690;28;20498;-69
2023/07/04 04:25:45;;;;;;;9.07;3.30;;;19.50;87.90;;;;;;4994424;28;20467;-69
2023/07/04 04:28:13;;;;;;;5.37;2.50;;;19.50;88.10;;;;;;4994341;28;20475;-69
2023/07/04 04:30:40;;;;;;;5.73;3.10;;;19.50;88.50;;;;;;4994551;28;20528;-69
2023/07/04 04:33:07;;;;;;;6.50;3.43;;;19.50;89.20;;;;;;4994557;28;20484;-69
2023/07/04 04:35:37;;;;;;;6.17;3.17;;;19.50;90.00;;;;;;4994769;28;20479;-70
2023/07/04 04:38:04;;;;;;;5.67;3.17;;;19.50;90.10;;;;;;4994275;28;20434;-69
2023/07/04 04:40:33;;;;;;;10.33;3.67;;;19.50;90.40;;;;;;4994410;28;20826;-69
2023/07/04 04:43:00;;;;;;;5.07;3.13;;;19.40;90.60;;;;;;4993819;28;20498;-69
2023/07/04 04:45:28;;;;;;;6.93;3.60;;;19.40;90.70;;;;;;5010332;28;20959;-69
2023/07/04 04:47:55;;;;;;;6.70;3.30;;;19.40;90.80;;;;;;5012417;28;20937;-71
2023/07/04 04:50:23;;;;;;;8.63;3.63;;;19.40;90.80;;;;;;5012904;28;20488;-69
2023/07/04 04:52:52;;;;;;;5.77;3.37;;;19.40;90.70;;;;;;5013089;28;20471;-69
2023/07/04 04:55:19;;;;;;;9.53;3.67;;;19.40;90.80;;;;;;4997170;28;20466;-69
2023/07/04 04:57:46;;;;;;;5.17;3.00;;;19.40;90.90;;;;;;4993053;28;20870;-70
2023/07/04 05:00:15;;;;;;;6.90;3.90;;;19.40;91.00;;;;;;5011502;28;20440;-72
2023/07/04 05:02:42;;;;;;;6.03;3.40;;;19.30;90.90;;;;;;5013225;28;20449;-71
2023/07/04 05:05:09;;;;;;;8.17;3.17;;;19.30;91.10;;;;;;5010800;28;20466;-69
2023/07/04 05:07:36;;;;;;;6.13;3.20;;;19.30;91.40;;;;;;4992980;28;20482;-69
2023/07/04 05:10:06;;;;;;;7.77;3.60;;;19.30;91.90;;;;;;4992987;28;20431;-69
2023/07/04 05:12:34;;;;;;;6.90;3.93;;;19.40;92.20;;;;;;4993543;28;20446;-69
2023/07/04 05:15:01;;;;;;;6.30;3.70;;;19.40;92.30;;;;;;4993328;28;20537;-71
2023/07/04 05:17:28;;;;;;;6.43;3.50;;;19.40;92.10;;;;;;4993621;28;20973;-69
2023/07/04 05:19:55;;;;;;;5.60;3.03;;;19.40;92.00;;;;;;4993725;28;20470;-69
2023/07/04 05:22:22;;;;;;;5.33;3.23;;;19.40;92.20;;;;;;4993591;28;20434;-70
2023/07/04 05:24:49;;;;;;;7.77;3.90;;;19.30;92.20;;;;;;5003777;28;20512;-69
2023/07/04 05:27:17;;;;;;;5.70;3.03;;;19.40;92.40;;;;;;5013339;28;20478;-69
2023/07/04 05:29:47;;;;;;;4.43;3.67;;;19.40;92.40;;;;;;5008041;28;20502;-69
2023/07/04 05:32:13;;;;;;;6.97;3.33;;;19.30;92.50;;;;;;4996560;28;20459;-69
2023/07/04 05:34:41;;;;;;;5.37;3.77;;;19.40;93.10;;;;;;4993428;28;20427;-69
2023/07/04 05:37:07;;;;;;;6.00;3.40;;;19.40;93.40;;;;;;4993129;28;20514;-69
2023/07/04 05:39:34;;;;;;;11.67;3.90;;;19.40;93.80;;;;;;4990805;28;20435;-71
2023/07/04 05:42:01;;;;;;;5.10;3.00;;;19.50;93.90;;;;;;4993279;28;20470;-69
2023/07/04 05:44:30;;;;;;;11.53;4.53;;;19.50;93.40;;;;;;5004132;28;20458;-69
2023/07/04 05:46:57;;;;;;;9.20;3.80;;;19.50;93.30;;;;;;4993692;28;20490;-70
2023/07/04 05:49:24;;;;;;;5.90;3.60;;;19.50;93.60;;;;;;5003602;28;20980;-69
2023/07/04 05:51:51;;;;;;;4.47;3.27;;;19.50;93.50;;;;;;5000636;28;20434;-71
2023/07/04 05:54:18;;;;;;;6.90;3.73;;;19.50;93.00;;;;;;5006633;28;20439;-69
2023/07/04 05:56:45;;;;;;;8.60;3.73;;;19.50;93.10;;;;;;4992789;28;20477;-69
2023/07/04 05:59:12;;;;;;;6.20;3.23;;;19.50;93.10;;;;;;4992700;28;20436;-71
2023/07/04 06:01:44;;;;;;;9.83;4.37;;;19.50;93.40;;;;;;4992670;28;20479;-71
2023/07/04 06:04:12;;;;;;;4.60;3.20;;;19.60;93.60;;;;;;4992582;28;20470;-69
2023/07/04 06:06:41;;;;;;;6.30;4.00;;;19.60;93.70;;;;;;4992618;28;20494;-69
2023/07/04 06:09:10;;;;;;;5.50;3.30;;;19.60;93.70;;;;;;4993033;28;20494;-69
2023/07/04 06:11:43;;;;;;;5.20;3.63;;;19.60;93.50;;;;;;4992619;28;20492;-71
2023/07/04 06:14:10;;;;;;;6.27;3.37;;;19.70;92.80;;;;;;4992733;28;20431;-69
2023/07/04 06:16:37;;;;;;;6.93;2.80;;;19.70;92.50;;;;;;4992663;28;20490;-69
2023/07/04 06:19:05;;;;;;;5.53;3.60;;;19.70;92.50;;;;;;4992752;28;20923;-70
2023/07/04 06:21:32;;;;;;;6.23;3.87;;;19.70;92.60;;;;;;4992192;28;20786;-69
2023/07/04 06:24:00;;;;;;;5.97;3.70;;;19.70;92.70;;;;;;4995973;28;20438;-69
2023/07/04 06:26:30;;;;;;;9.73;4.87;;;19.80;92.80;;;;;;4995843;28;20457;-69
2023/07/04 06:28:56;;;;;;;6.23;3.77;;;19.80;92.50;;;;;;5002607;28;20440;-69
2023/07/04 06:31:23;;;;;;;4.80;3.10;;;19.80;92.70;;;;;;4996667;28;20497;-75
2023/07/04 06:33:50;;;;;;;6.57;4.40;;;19.80;93.10;;;;;;5013532;28;20465;-69
2023/07/04 06:36:19;;;;;;;4.93;3.40;;;19.80;92.80;;;;;;5009746;28;20522;-70
2023/07/04 06:38:46;;;;;;;10.23;5.40;;;19.80;92.80;;;;;;4999496;28;20440;-69
2023/07/04 06:41:15;;;;;;;7.50;4.10;;;19.90;93.50;;;;;;4996249;28;20490;-69
2023/07/04 06:43:44;;;;;;;5.97;4.03;;;19.90;93.90;;;;;;4996087;28;20452;-69
2023/07/04 06:46:12;;;;;;;7.03;4.30;;;20.00;93.80;;;;;;4996509;28;20780;-70
2023/07/04 06:48:39;;;;;;;6.00;3.73;;;20.10;94.20;;;;;;4994663;28;20513;-69
2023/07/04 06:51:08;;;;;;;5.83;3.40;;;20.10;94.10;;;;;;4996110;28;20490;-69
2023/07/04 06:53:37;;;;;;;7.60;3.97;;;20.10;93.80;;;;;;4996634;28;20431;-70
2023/07/04 06:56:06;;;;;;;8.80;4.80;;;20.20;94.00;;;;;;4995793;28;20434;-69
2023/07/04 06:58:34;;;;;;;5.60;3.80;;;20.30;93.10;;;;;;4996360;28;20522;-69
2023/07/04 07:01:02;;;;;;;6.40;3.90;;;20.40;93.20;;;;;;4996241;28;20467;-69
2023/07/04 07:03:29;;;;;;;6.03;3.40;;;20.50;93.10;;;;;;4996184;28;20440;-70
2023/07/04 07:05:56;;;;;;;7.63;2.83;;;20.50;93.20;;;;;;4996154;28;20439;-72
2023/07/04 07:08:23;;;;;;;4.90;3.50;;;20.60;92.60;;;;;;4996378;28;20510;-69
2023/07/04 07:10:57;;;;;;;5.43;2.97;;;20.60;92.40;;;;;;4996038;28;20431;-69
2023/07/04 07:13:25;;;;;;;3.93;2.83;;;20.60;92.60;;;;;;4996054;28;20890;-69
2023/07/04 07:15:52;;;;;;;4.50;3.03;;;20.60;92.20;;;;;;4996230;28;20575;-70
2023/07/04 07:18:19;;;;;;;5.20;2.63;;;20.60;92.20;;;;;;4995664;28;20522;-69
2023/07/04 07:20:46;;;;;;;7.23;3.60;;;20.60;92.30;;;;;;4995767;28;20522;-70
2023/07/04 07:23:13;;;;;;;4.97;3.20;;;20.60;92.30;;;;;;4996193;28;20441;-69
2023/07/04 07:25:40;;;;;;;4.47;2.67;;;20.70;92.10;;;;;;4996051;28;20468;-69
2023/07/04 07:28:08;;;;;;;4.70;2.80;;;20.70;92.30;;;;;;4995711;28;20935;-69
2023/07/04 07:30:35;;;;;;;4.30;3.10;;;20.80;92.00;;;;;;4995655;28;20495;-69
2023/07/04 07:33:02;;;;;;;5.57;2.77;;;20.80;91.50;;;;;;4995511;28;20464;-69
2023/07/04 07:35:31;;;;;;;2.90;1.87;;;20.90;91.80;;;;;;4995481;28;20436;-69
2023/07/04 07:37:58;;;;;;;6.13;1.60;;;21.00;90.90;;;;;;4995851;28;20482;-69
2023/07/04 07:40:26;;;;;;;2.90;1.30;;;21.10;90.20;;;;;;4995836;28;20856;-69
2023/07/04 07:42:53;;;;;;;6.10;1.20;;;21.20;84.60;;;;;;4995313;28;20537;-69
2023/07/04 07:45:21;;;;;;;3.17;1.53;;;21.20;85.40;;;;;;4995737;28;20432;-69
2023/07/04 07:47:48;;;;;;;3.03;1.70;;;21.20;84.80;;;;;;4995696;28;20441;-69
2023/07/04 07:50:15;;;;;;;2.53;1.40;;;21.30;83.30;;;;;;4995206;28;20475;-69
2023/07/04 07:52:42;;;;;;;3.40;1.40;;;21.40;84.10;;;;;;4995482;28;20476;-69
2023/07/04 07:55:09;;;;;;;2.40;1.50;;;21.40;81.40;;;;;;4995157;28;20998;-69
2023/07/04 07:57:36;;;;;;;2.27;1.17;;;21.40;79.60;;;;;;4995404;28;20552;-69
2023/07/04 08:00:04;;;;;;;2.37;1.27;;;21.40;82.50;;;;;;4995130;28;20475;-69
2023/07/04 08:02:33;;;;;;;3.17;1.53;;;21.60;83.60;;;;;;4994955;28;20484;-69
2023/07/04 08:05:00;;;;;;;3.00;1.70;;;21.70;80.00;;;;;;4994946;28;20519;-69
2023/07/04 08:07:27;;;;;;;2.40;1.50;;;21.70;78.60;;;;;;4994906;28;20474;-69
2023/07/04 08:09:53;;;;;;;2.40;1.23;;;21.80;78.40;;;;;;4995392;28;20463;-69
2023/07/04 08:12:20;;;;;;;2.53;1.40;;;21.90;78.80;;;;;;4995352;28;20471;-69
2023/07/04 08:14:49;;;;;;;4.80;1.67;;;21.90;78.90;;;;;;4994928;28;20467;-69
2023/07/04 08:17:16;;;;;;;2.70;1.33;;;21.90;78.80;;;;;;4994623;28;20512;-69
2023/07/04 08:19:44;;;;;;;2.60;1.30;;;21.90;79.20;;;;;;4995092;28;20826;-69
2023/07/04 08:22:11;;;;;;;5.33;1.20;;;22.00;79.70;;;;;;4994652;28;20463;-69
2023/07/04 08:24:38;;;;;;;2.33;1.17;;;22.10;78.60;;;;;;4995032;28;20460;-69
2023/07/04 08:27:05;;;;;;;4.30;1.73;;;22.30;80.50;;;;;;4994920;28;20465;-69
2023/07/04 08:29:32;;;;;;;2.40;1.20;;;22.40;77.80;;;;;;4994548;28;20439;-69
2023/07/04 08:31:59;;;;;;;2.80;1.53;;;22.60;77.50;;;;;;4994463;28;20955;-69
2023/07/04 08:34:26;;;;;;;3.63;1.30;;;22.80;78.00;;;;;;4994814;28;20429;-69
2023/07/04 08:36:55;;;;;;;2.93;1.27;;;23.00;77.70;;;;;;4994638;28;20437;-69
2023/07/04 08:39:22;;;;;;;3.03;1.20;;;23.10;76.00;;;;;;4994841;28;20481;-69
2023/07/04 08:41:56;;;;;;;2.73;1.20;;;23.30;74.00;;;;;;4994158;28;20958;-71
2023/07/04 08:44:29;;;;;;;2.73;1.00;;;23.50;73.30;;;;;;4994013;28;20425;-69
2023/07/04 08:46:59;;;;;;;3.23;1.10;;;23.60;70.60;;;;;;4994392;28;20895;-70
2023/07/04 08:49:34;;;;;;;2.70;1.37;;;23.70;69.10;;;;;;4994610;28;20821;-69
2023/07/04 08:52:09;;;;;;;2.50;1.20;;;23.90;69.10;;;;;;4994521;28;20484;-70
2023/07/04 08:54:37;;;;;;;2.40;1.30;;;24.10;69.50;;;;;;4994231;28;20453;-69
2023/07/04 08:57:15;;;;;;;3.13;1.40;;;24.30;67.40;;;;;;4993865;28;20465;-69
2023/07/04 08:59:44;;;;;;;2.80;1.27;;;24.40;64.30;;;;;;4994581;28;20532;-70
2023/07/04 09:02:41;;;;;;;2.60;1.33;;;24.50;64.50;;;;;;4994082;28;20434;-69
2023/07/04 09:05:16;;;;;;;3.13;1.60;;;24.70;64.90;;;;;;4994131;28;20423;-69
2023/07/04 09:07:52;;;;;;;5.30;1.37;;;24.80;65.80;;;;;;4994435;28;20820;-69
2023/07/04 09:10:30;;;;;;;2.80;1.40;;;25.00;66.50;;;;;;4993805;28;20466;-70
2023/07/04 09:12:57;;;;;;;3.20;1.13;;;25.20;63.70;;;;;;4994387;28;20455;-74
2023/07/04 09:15:30;;;;;;;7.93;1.40;;;25.30;59.50;;;;;;4993965;28;20467;-72
2023/07/04 09:18:04;;;;;;;3.23;1.30;;;25.50;59.40;;;;;;4993942;28;20492;-69
2023/07/04 09:20:34;;;;;;;3.07;1.77;;;25.60;60.10;;;;;;4994250;28;20430;-70
2023/07/04 09:23:08;;;;;;;3.90;1.30;;;25.70;59.90;;;;;;4994221;28;20463;-70
2023/07/04 09:25:35;;;;;;;3.83;1.50;;;25.80;59.30;;;;;;4994191;28;20450;-69
2023/07/04 09:28:01;;;;;;;2.50;1.00;;;25.90;58.40;;;;;;4994122;28;20473;-70
2023/07/04 09:30:28;;;;;;;1.83;0.80;;;26.00;57.90;;;;;;4993774;28;20440;-70
2023/07/04 09:32:55;;;;;;;2.67;1.37;;;26.10;58.00;;;;;;4994092;28;20502;-69
2023/07/04 09:35:22;;;;;;;2.20;1.10;;;26.20;56.50;;;;;;4994129;28;20567;-69
2023/07/04 09:37:57;;;;;;;2.47;1.30;;;26.20;56.00;;;;;;4993684;28;20535;-69
2023/07/04 09:40:47;;;;;;;2.93;1.60;;;26.20;55.70;;;;;;4993739;28;21001;-70
2023/07/04 09:43:27;;;;;;;2.70;1.20;;;26.10;55.60;;;;;;4993917;28;20468;-70
2023/07/04 09:46:11;;;;;;;2.63;1.33;;;26.20;55.70;;;;;;4994019;28;20429;-70
2023/07/04 09:48:39;;;;;;;2.90;1.43;;;26.20;55.10;;;;;;4993771;28;20416;-69
2023/07/04 09:51:19;;;;;;;2.93;1.40;;;26.20;55.50;;;;;;4993645;28;20760;-70
2023/07/04 09:53:46;;;;;;;5.60;1.90;;;26.30;56.60;;;;;;4994139;28;20811;-70
2023/07/04 09:56:25;;;;;;;2.93;1.50;;;26.40;55.80;;;;;;4995271;28;20470;-70
2023/07/04 09:59:11;;;;;;;2.70;1.47;;;26.50;55.20;;;;;;4997639;28;20652;-69
2023/07/04 10:01:39;;;;;;;3.33;1.57;;;26.70;55.50;;;;;;4997368;28;20467;-69
2023/07/04 10:04:08;;;;;;;3.07;1.77;;;26.80;55.20;;;;;;4997554;28;20456;-69
2023/07/04 10:06:36;;;;;;;3.07;1.77;;;26.80;54.10;;;;;;4997447;28;20442;-69
2023/07/04 10:09:14;;;;;;;2.80;1.60;;;26.90;54.20;;;;;;4997044;28;20528;-70
2023/07/04 10:11:42;;;;;;;3.50;1.50;;;27.00;54.30;;;;;;4995319;28;20423;-69
2023/07/04 10:14:13;;;;;;;3.33;1.60;;;27.10;52.40;;;;;;4997082;28;20985;-70
2023/07/04 10:16:47;;;;;;;3.10;1.60;;;27.00;51.60;;;;;;4997330;28;20506;-69
2023/07/04 10:19:17;;;;;;;3.40;1.60;;;27.00;50.50;;;;;;4996958;28;20469;-69
2023/07/04 10:21:48;;;;;;;3.50;1.40;;;26.80;51.60;;;;;;4997396;28;20416;-69
2023/07/04 10:24:18;;;;;;;5.00;2.07;;;26.80;51.60;;;;;;4997423;28;20824;-69
2023/07/04 10:26:49;;;;;;;5.40;1.30;;;26.70;52.80;;;;;;4997278;28;20424;-69
2023/07/04 10:29:17;;;;;;;3.23;1.30;;;26.70;53.00;;;;;;4996910;28;20515;-69
2023/07/04 10:31:45;;;;;;;3.10;1.37;;;26.70;53.20;;;;;;4996774;28;20432;-69
2023/07/04 10:34:19;;;;;;;4.70;2.07;;;26.70;51.40;;;;;;4996757;28;20432;-69
2023/07/04 10:36:50;;;;;;;4.37;1.30;;;26.60;50.70;;;;;;4996971;28;20517;-70
2023/07/04 10:39:18;;;;;;;2.70;1.17;;;26.50;53.00;;;;;;4996617;28;20460;-69
2023/07/04 10:41:54;;;;;;;2.10;1.20;;;26.50;53.60;;;;;;4996672;28;20459;-69
2023/07/04 10:44:24;;;;;;;2.30;1.20;;;26.50;53.30;;;;;;4996882;28;20466;-69
2023/07/04 10:46:56;;;;;;;2.37;1.20;;;26.50;51.00;;;;;;4996907;28;20494;-69
2023/07/04 10:49:26;;;;;;;2.73;1.30;;;26.40;52.10;;;;;;4996834;28;20429;-69
2023/07/04 10:51:58;;;;;;;3.27;1.60;;;26.40;52.30;;;;;;4996331;28;20437;-69
2023/07/04 10:54:25;;;;;;;2.40;1.27;;;26.40;53.30;;;;;;4996816;28;20428;-69
2023/07/04 10:56:59;;;;;;;3.20;1.53;;;26.50;53.50;;;;;;4996864;28;20432;-69
2023/07/04 10:59:30;;;;;;;2.77;1.20;;;26.50;53.00;;;;;;4996230;28;20518;-70
2023/07/04 11:02:03;;;;;;;2.83;1.20;;;26.60;53.20;;;;;;4996171;28;20424;-69
2023/07/04 11:04:34;;;;;;;3.23;1.10;;;26.50;51.00;;;;;;5005472;28;20463;-69
2023/07/04 11:07:05;;;;;;;3.00;1.57;;;26.60;52.50;;;;;;5006507;28;20522;-69
2023/07/04 11:09:35;;;;;;;3.40;1.70;;;26.70;51.50;;;;;;4976217;28;20923;-70
2023/07/04 11:12:07;;;;;;;3.10;1.33;;;26.80;52.10;;;;;;4976909;28;20425;-69
2023/07/04 11:14:39;;;;;;;3.17;1.20;;;26.90;51.70;;;;;;4998453;28;20513;-69
2023/07/04 11:17:11;;;;;;;2.80;1.20;;;27.00;49.60;;;;;;5012918;28;20464;-69
2023/07/04 11:19:55;;;;;;;2.20;1.13;;;27.10;49.70;;;;;;5012695;28;20474;-69
2023/07/04 11:22:39;;;;;;;2.93;1.33;;;27.20;49.90;;;;;;4995836;28;20482;-69
2023/07/04 11:25:28;;;;;;;2.23;1.13;;;27.20;49.30;;;;;;4996109;28;20934;-69
2023/07/04 11:28:18;;;;;;;2.93;1.37;;;27.40;50.20;;;;;;4990814;28;20451;-70
2023/07/04 11:30:48;;;;;;;3.23;1.43;;;27.50;50.50;;;;;;4992010;28;20484;-69
2023/07/04 11:33:39;;;;;;;2.93;1.40;;;27.60;50.00;;;;;;4995714;28;20459;-69
2023/07/04 11:36:07;;;;;;;2.50;1.17;;;27.80;50.50;;;;;;5007424;28;20890;-70
2023/07/04 11:38:36;;;;;;;2.63;1.17;;;27.90;50.40;;;;;;4994809;28;20483;-70
2023/07/04 11:41:03;;;;;;;4.63;1.50;;;28.00;50.30;;;;;;4995300;28;20436;-69
2023/07/04 11:43:41;;;;;;;2.70;1.40;;;28.10;49.20;;;;;;4994863;28;20499;-70
2023/07/04 11:46:10;;;;;;;2.83;1.50;;;28.20;47.90;;;;;;4995154;28;20895;-70
2023/07/04 11:48:49;;;;;;;2.53;1.20;;;28.10;46.40;;;;;;4994707;28;20432;-70
2023/07/04 11:51:18;;;;;;;2.80;1.37;;;28.00;45.80;;;;;;4995583;28;20757;-69
2023/07/04 11:53:51;;;;;;;5.03;1.63;;;28.10;47.20;;;;;;4995214;28;20440;-69
2023/07/04 11:56:23;;;;;;;2.57;1.33;;;28.10;47.30;;;;;;4995266;28;20421;-72
2023/07/04 11:59:28;;;;;;;2.37;1.30;;;28.30;46.30;;;;;;4995269;28;20551;-69
2023/07/04 12:02:12;;;;;;;2.10;0.80;;;28.30;45.60;;;;;;4992908;28;20436;-70
2023/07/04 12:04:48;;;;;;;3.00;1.60;;;28.20;44.90;;;;;;4994753;28;20806;-69
2023/07/04 12:07:21;;;;;;;2.90;1.10;;;28.20;44.00;;;;;;4994967;28;20424;-69
2023/07/04 12:09:53;;;;;;;3.00;1.30;;;28.10;44.50;;;;;;4995575;28;20424;-69
2023/07/04 12:12:27;;;;;;;2.90;1.10;;;28.20;44.20;;;;;;4995016;28;20470;-71
2023/07/04 12:15:02;;;;;;;2.10;1.10;;;28.10;43.30;;;;;;4995185;28;20424;-69
2023/07/04 12:17:29;;;;;;;2.80;1.43;;;28.10;43.90;;;;;;4994917;28;20451;-69
2023/07/04 12:20:03;;;;;;;3.30;1.60;;;28.20;43.70;;;;;;4994651;28;20471;-69
2023/07/04 12:22:30;;;;;;;2.70;1.43;;;28.30;44.40;;;;;;4995339;28;20792;-69
2023/07/04 12:25:11;;;;;;;2.57;1.27;;;28.30;42.30;;;;;;4994731;28;20468;-69
2023/07/04 12:27:42;;;;;;;2.50;1.40;;;28.30;43.00;;;;;;4994806;28;20744;-69
2023/07/04 12:30:13;;;;;;;3.70;1.20;;;28.30;44.40;;;;;;4994672;28;20425;-69
2023/07/04 12:32:40;;;;;;;2.90;1.50;;;28.30;44.40;;;;;;4994524;28;20499;-69
2023/07/04 12:35:08;;;;;;;3.60;1.30;;;28.40;44.40;;;;;;4994861;28;20854;-70
2023/07/04 12:37:40;;;;;;;2.57;1.33;;;28.40;45.50;;;;;;4994747;28;20463;-69
2023/07/04 12:40:15;;;;;;;4.10;1.40;;;28.50;44.30;;;;;;4994435;28;20472;-69
2023/07/04 12:42:44;;;;;;;2.50;1.40;;;28.40;44.70;;;;;;4994506;28;20506;-69
2023/07/04 12:45:16;;;;;;;2.60;1.40;;;28.50;45.80;;;;;;4994702;28;20490;-69
2023/07/04 12:47:45;;;;;;;3.13;1.67;;;28.50;45.60;;;;;;4994771;28;20479;-69
2023/07/04 12:50:15;;;;;;;4.07;1.80;;;28.50;45.60;;;;;;4994582;28;20428;-71
2023/07/04 12:52:43;;;;;;;3.00;1.43;;;28.60;46.10;;;;;;4994180;28;20436;-69
2023/07/04 12:55:23;;;;;;;3.37;1.77;;;28.70;46.00;;;;;;4994236;28;20468;-69
2023/07/04 12:57:51;;;;;;;3.00;1.30;;;28.80;46.10;;;;;;4994600;28;20424;-69